sensor_id;sensor_type;location;lat;lon;timestamp;P1;durP1;ratioP1;P2;durP2;ratioP2
71496;SDS011;59317;53.218;5.730;2023-05-16T00:02:00;13.55;;;1.40;;
71496;SDS011;59317;53.218;5.730;2023-05-16T00:04:27;14.10;;;1.17;;
71496;SDS011;59317;53.218;5.730;2023-05-16T00:06:53;13.35;;;1.38;;
71496;SDS011;59317;53.218;5.730;2023-05-16T00:09:19;11.88;;;1.27;;
71496;SDS011;59317;53.218;5.730;2023-05-16T00:11:45;15.13;;;1.40;;
71496;SDS011;59317;53.218;5.730;2023-05-16T00:14:12;9.93;;;1.42;;
71496;SDS011;59317;53.218;5.730;2023-05-16T00:16:39;10.85;;;1.27;;
71496;SDS011;59317;53.218;5.730;2023-05-16T00:19:05;10.52;;;1.25;;
71496;SDS011;59317;53.218;5.730;2023-05-16T00:21:32;13.50;;;1.23;;
71496;SDS011;59317;53.218;5.730;2023-05-16T00:23:58;13.40;;;1.30;;
71496;SDS011;59317;53.218;5.730;2023-05-16T00:26:24;10.45;;;1.15;;
71496;SDS011;59317;53.218;5.730;2023-05-16T00:28:50;14.38;;;1.20;;
71496;SDS011;59317;53.218;5.730;2023-05-16T00:31:16;14.23;;;1.20;;
71496;SDS011;59317;53.218;5.730;2023-05-16T00:33:42;10.35;;;1.35;;
71496;SDS011;59317;53.218;5.730;2023-05-16T00:36:08;11.57;;;1.30;;
71496;SDS011;59317;53.218;5.730;2023-05-16T00:38:35;8.70;;;1.10;;
71496;SDS011;59317;53.218;5.730;2023-05-16T00:41:01;12.23;;;1.30;;
71496;SDS011;59317;53.218;5.730;2023-05-16T00:43:28;12.38;;;1.17;;
71496;SDS011;59317;53.218;5.730;2023-05-16T00:45:55;10.15;;;1.13;;
71496;SDS011;59317;53.218;5.730;2023-05-16T00:48:21;11.37;;;1.40;;
71496;SDS011;59317;53.218;5.730;2023-05-16T00:50:47;15.37;;;1.43;;
71496;SDS011;59317;53.218;5.730;2023-05-16T00:53:14;13.00;;;1.35;;
71496;SDS011;59317;53.218;5.730;2023-05-16T00:55:40;11.77;;;1.48;;
71496;SDS011;59317;53.218;5.730;2023-05-16T00:58:07;11.27;;;1.50;;
71496;SDS011;59317;53.218;5.730;2023-05-16T01:00:33;15.43;;;1.50;;
71496;SDS011;59317;53.218;5.730;2023-05-16T01:03:00;10.45;;;1.33;;
71496;SDS011;59317;53.218;5.730;2023-05-16T01:05:26;10.82;;;1.33;;
71496;SDS011;59317;53.218;5.730;2023-05-16T01:07:52;13.95;;;1.23;;
71496;SDS011;59317;53.218;5.730;2023-05-16T01:10:18;11.00;;;1.63;;
71496;SDS011;59317;53.218;5.730;2023-05-16T01:12:53;9.93;;;1.20;;
71496;SDS011;59317;53.218;5.730;2023-05-16T01:15:25;11.85;;;1.35;;
71496;SDS011;59317;53.218;5.730;2023-05-16T01:17:59;13.63;;;1.40;;
71496;SDS011;59317;53.218;5.730;2023-05-16T01:28:12;9.70;;;1.10;;
71496;SDS011;59317;53.218;5.730;2023-05-16T01:30:39;13.05;;;1.58;;
71496;SDS011;59317;53.218;5.730;2023-05-16T01:33:06;14.95;;;1.40;;
71496;SDS011;59317;53.218;5.730;2023-05-16T01:35:32;9.80;;;1.13;;
71496;SDS011;59317;53.218;5.730;2023-05-16T01:38:32;9.48;;;1.30;;
71496;SDS011;59317;53.218;5.730;2023-05-16T01:40:52;10.57;;;1.00;;
71496;SDS011;59317;53.218;5.730;2023-05-16T01:43:28;10.23;;;0.93;;
71496;SDS011;59317;53.218;5.730;2023-05-16T01:46:00;13.00;;;1.30;;
71496;SDS011;59317;53.218;5.730;2023-05-16T01:48:29;10.47;;;0.93;;
71496;SDS011;59317;53.218;5.730;2023-05-16T01:50:57;10.13;;;0.88;;
71496;SDS011;59317;53.218;5.730;2023-05-16T01:53:30;8.90;;;0.88;;
71496;SDS011;59317;53.218;5.730;2023-05-16T01:55:59;8.27;;;0.98;;
71496;SDS011;59317;53.218;5.730;2023-05-16T01:58:27;9.40;;;0.80;;
71496;SDS011;59317;53.218;5.730;2023-05-16T02:00:53;12.52;;;1.17;;
71496;SDS011;59317;53.218;5.730;2023-05-16T02:03:19;9.85;;;1.20;;
71496;SDS011;59317;53.218;5.730;2023-05-16T02:05:46;10.07;;;0.90;;
71496;SDS011;59317;53.218;5.730;2023-05-16T02:08:12;7.97;;;1.03;;
71496;SDS011;59317;53.218;5.730;2023-05-16T02:10:38;13.13;;;1.40;;
71496;SDS011;59317;53.218;5.730;2023-05-16T02:13:05;9.73;;;0.90;;
71496;SDS011;59317;53.218;5.730;2023-05-16T02:15:31;9.63;;;0.98;;
71496;SDS011;59317;53.218;5.730;2023-05-16T02:17:57;10.27;;;0.95;;
71496;SDS011;59317;53.218;5.730;2023-05-16T02:20:23;12.32;;;1.30;;
71496;SDS011;59317;53.218;5.730;2023-05-16T02:22:49;10.77;;;1.15;;
71496;SDS011;59317;53.218;5.730;2023-05-16T02:25:15;11.25;;;0.80;;
71496;SDS011;59317;53.218;5.730;2023-05-16T02:27:42;10.02;;;1.00;;
71496;SDS011;59317;53.218;5.730;2023-05-16T02:30:08;11.80;;;1.25;;
71496;SDS011;59317;53.218;5.730;2023-05-16T02:32:35;8.93;;;0.83;;
71496;SDS011;59317;53.218;5.730;2023-05-16T02:35:01;10.47;;;1.40;;
71496;SDS011;59317;53.218;5.730;2023-05-16T02:37:28;10.68;;;1.00;;
71496;SDS011;59317;53.218;5.730;2023-05-16T02:39:54;10.05;;;1.05;;
71496;SDS011;59317;53.218;5.730;2023-05-16T02:42:20;11.17;;;1.13;;
71496;SDS011;59317;53.218;5.730;2023-05-16T02:44:46;9.20;;;0.83;;
71496;SDS011;59317;53.218;5.730;2023-05-16T02:47:12;10.20;;;0.90;;
71496;SDS011;59317;53.218;5.730;2023-05-16T02:49:38;12.13;;;1.27;;
71496;SDS011;59317;53.218;5.730;2023-05-16T02:52:04;11.35;;;1.15;;
71496;SDS011;59317;53.218;5.730;2023-05-16T02:54:31;11.60;;;1.10;;
71496;SDS011;59317;53.218;5.730;2023-05-16T02:56:57;9.53;;;0.87;;
71496;SDS011;59317;53.218;5.730;2023-05-16T02:59:23;10.70;;;1.10;;
71496;SDS011;59317;53.218;5.730;2023-05-16T03:01:50;9.35;;;0.95;;
71496;SDS011;59317;53.218;5.730;2023-05-16T03:04:16;10.68;;;1.10;;
71496;SDS011;59317;53.218;5.730;2023-05-16T03:06:42;12.48;;;1.40;;
71496;SDS011;59317;53.218;5.730;2023-05-16T03:09:08;11.52;;;1.20;;
71496;SDS011;59317;53.218;5.730;2023-05-16T03:11:34;8.33;;;0.93;;
71496;SDS011;59317;53.218;5.730;2023-05-16T03:14:00;9.70;;;1.07;;
71496;SDS011;59317;53.218;5.730;2023-05-16T03:16:26;11.10;;;1.15;;
71496;SDS011;59317;53.218;5.730;2023-05-16T03:18:52;10.05;;;1.00;;
71496;SDS011;59317;53.218;5.730;2023-05-16T03:21:18;8.73;;;0.90;;
71496;SDS011;59317;53.218;5.730;2023-05-16T03:23:44;9.55;;;1.02;;
71496;SDS011;59317;53.218;5.730;2023-05-16T03:26:10;11.05;;;1.10;;
71496;SDS011;59317;53.218;5.730;2023-05-16T03:28:36;7.70;;;0.90;;
71496;SDS011;59317;53.218;5.730;2023-05-16T03:31:02;10.13;;;1.17;;
71496;SDS011;59317;53.218;5.730;2023-05-16T03:33:28;13.10;;;1.15;;
71496;SDS011;59317;53.218;5.730;2023-05-16T03:35:54;8.80;;;1.10;;
71496;SDS011;59317;53.218;5.730;2023-05-16T03:38:20;11.07;;;0.90;;
71496;SDS011;59317;53.218;5.730;2023-05-16T03:40:46;9.48;;;0.98;;
71496;SDS011;59317;53.218;5.730;2023-05-16T03:43:12;10.47;;;1.00;;
71496;SDS011;59317;53.218;5.730;2023-05-16T03:45:38;10.90;;;1.20;;
71496;SDS011;59317;53.218;5.730;2023-05-16T03:48:04;11.37;;;1.00;;
71496;SDS011;59317;53.218;5.730;2023-05-16T03:50:30;11.53;;;1.00;;
71496;SDS011;59317;53.218;5.730;2023-05-16T03:52:57;9.90;;;1.00;;
71496;SDS011;59317;53.218;5.730;2023-05-16T03:55:23;8.70;;;0.90;;
71496;SDS011;59317;53.218;5.730;2023-05-16T03:57:49;11.82;;;1.00;;
71496;SDS011;59317;53.218;5.730;2023-05-16T04:00:16;9.43;;;0.80;;
71496;SDS011;59317;53.218;5.730;2023-05-16T04:02:42;8.43;;;0.80;;
71496;SDS011;59317;53.218;5.730;2023-05-16T04:05:09;11.52;;;1.00;;
71496;SDS011;59317;53.218;5.730;2023-05-16T04:07:36;15.30;;;1.27;;
71496;SDS011;59317;53.218;5.730;2023-05-16T04:10:02;13.20;;;1.20;;
71496;SDS011;59317;53.218;5.730;2023-05-16T04:12:28;10.93;;;1.00;;
71496;SDS011;59317;53.218;5.730;2023-05-16T04:14:54;10.43;;;1.10;;
71496;SDS011;59317;53.218;5.730;2023-05-16T04:17:20;9.35;;;1.10;;
71496;SDS011;59317;53.218;5.730;2023-05-16T04:19:46;8.85;;;0.98;;
71496;SDS011;59317;53.218;5.730;2023-05-16T04:22:12;12.60;;;1.20;;
71496;SDS011;59317;53.218;5.730;2023-05-16T04:24:38;9.57;;;1.08;;
71496;SDS011;59317;53.218;5.730;2023-05-16T04:27:05;9.48;;;1.20;;
71496;SDS011;59317;53.218;5.730;2023-05-16T04:29:34;9.07;;;1.08;;
71496;SDS011;59317;53.218;5.730;2023-05-16T04:32:00;11.73;;;1.00;;
71496;SDS011;59317;53.218;5.730;2023-05-16T04:34:27;9.88;;;0.98;;
71496;SDS011;59317;53.218;5.730;2023-05-16T04:36:53;10.20;;;0.93;;
71496;SDS011;59317;53.218;5.730;2023-05-16T04:39:20;7.82;;;0.80;;
71496;SDS011;59317;53.218;5.730;2023-05-16T04:41:46;10.13;;;1.25;;
71496;SDS011;59317;53.218;5.730;2023-05-16T04:44:12;9.73;;;1.00;;
71496;SDS011;59317;53.218;5.730;2023-05-16T04:46:38;10.15;;;0.90;;
71496;SDS011;59317;53.218;5.730;2023-05-16T04:49:05;9.30;;;0.80;;
71496;SDS011;59317;53.218;5.730;2023-05-16T04:51:34;10.10;;;1.10;;
71496;SDS011;59317;53.218;5.730;2023-05-16T04:54:00;8.73;;;0.80;;
71496;SDS011;59317;53.218;5.730;2023-05-16T04:56:26;9.47;;;1.07;;
71496;SDS011;59317;53.218;5.730;2023-05-16T04:58:52;6.63;;;0.60;;
71496;SDS011;59317;53.218;5.730;2023-05-16T05:01:18;8.20;;;0.80;;
71496;SDS011;59317;53.218;5.730;2023-05-16T05:03:44;5.95;;;0.50;;
71496;SDS011;59317;53.218;5.730;2023-05-16T05:06:11;6.60;;;0.60;;
71496;SDS011;59317;53.218;5.730;2023-05-16T05:08:37;7.93;;;0.90;;
71496;SDS011;59317;53.218;5.730;2023-05-16T05:11:03;6.85;;;0.60;;
71496;SDS011;59317;53.218;5.730;2023-05-16T05:13:29;7.53;;;0.70;;
71496;SDS011;59317;53.218;5.730;2023-05-16T05:15:55;5.82;;;0.70;;
71496;SDS011;59317;53.218;5.730;2023-05-16T05:18:21;10.40;;;1.00;;
71496;SDS011;59317;53.218;5.730;2023-05-16T05:20:47;8.47;;;0.67;;
71496;SDS011;59317;53.218;5.730;2023-05-16T05:23:13;8.67;;;0.80;;
71496;SDS011;59317;53.218;5.730;2023-05-16T05:25:39;13.57;;;1.10;;
71496;SDS011;59317;53.218;5.730;2023-05-16T05:28:05;8.57;;;0.88;;
71496;SDS011;59317;53.218;5.730;2023-05-16T05:30:31;6.70;;;0.77;;
71496;SDS011;59317;53.218;5.730;2023-05-16T05:32:57;8.90;;;0.80;;
71496;SDS011;59317;53.218;5.730;2023-05-16T05:35:23;7.07;;;0.80;;
71496;SDS011;59317;53.218;5.730;2023-05-16T05:37:49;6.07;;;0.50;;
71496;SDS011;59317;53.218;5.730;2023-05-16T05:40:15;7.28;;;0.60;;
71496;SDS011;59317;53.218;5.730;2023-05-16T05:42:41;5.03;;;0.52;;
71496;SDS011;59317;53.218;5.730;2023-05-16T05:45:08;5.15;;;0.65;;
71496;SDS011;59317;53.218;5.730;2023-05-16T05:47:34;7.25;;;0.52;;
71496;SDS011;59317;53.218;5.730;2023-05-16T05:50:00;11.20;;;1.15;;
71496;SDS011;59317;53.218;5.730;2023-05-16T05:52:26;8.18;;;0.70;;
71496;SDS011;59317;53.218;5.730;2023-05-16T05:54:53;7.10;;;0.60;;
71496;SDS011;59317;53.218;5.730;2023-05-16T05:57:19;8.23;;;0.60;;
71496;SDS011;59317;53.218;5.730;2023-05-16T05:59:45;6.43;;;0.60;;
71496;SDS011;59317;53.218;5.730;2023-05-16T06:02:11;10.00;;;0.98;;
71496;SDS011;59317;53.218;5.730;2023-05-16T06:04:37;8.57;;;0.73;;
71496;SDS011;59317;53.218;5.730;2023-05-16T06:07:04;9.70;;;0.85;;
71496;SDS011;59317;53.218;5.730;2023-05-16T06:09:30;9.05;;;0.90;;
71496;SDS011;59317;53.218;5.730;2023-05-16T06:11:56;8.77;;;0.80;;
71496;SDS011;59317;53.218;5.730;2023-05-16T06:14:22;8.43;;;1.00;;
71496;SDS011;59317;53.218;5.730;2023-05-16T06:16:48;7.10;;;0.80;;
71496;SDS011;59317;53.218;5.730;2023-05-16T06:19:14;8.07;;;0.70;;
71496;SDS011;59317;53.218;5.730;2023-05-16T06:21:40;7.10;;;0.80;;
71496;SDS011;59317;53.218;5.730;2023-05-16T06:24:07;7.50;;;0.77;;
71496;SDS011;59317;53.218;5.730;2023-05-16T06:26:34;10.93;;;0.90;;
71496;SDS011;59317;53.218;5.730;2023-05-16T06:29:00;9.32;;;1.10;;
71496;SDS011;59317;53.218;5.730;2023-05-16T06:31:26;9.73;;;1.10;;
71496;SDS011;59317;53.218;5.730;2023-05-16T06:33:52;7.85;;;0.75;;
71496;SDS011;59317;53.218;5.730;2023-05-16T06:36:18;8.50;;;0.90;;
71496;SDS011;59317;53.218;5.730;2023-05-16T06:38:44;5.95;;;0.80;;
71496;SDS011;59317;53.218;5.730;2023-05-16T06:41:12;7.65;;;0.80;;
71496;SDS011;59317;53.218;5.730;2023-05-16T06:43:38;7.55;;;0.90;;
71496;SDS011;59317;53.218;5.730;2023-05-16T06:46:05;9.38;;;1.02;;
71496;SDS011;59317;53.218;5.730;2023-05-16T06:48:31;7.63;;;1.00;;
71496;SDS011;59317;53.218;5.730;2023-05-16T06:50:57;7.43;;;1.02;;
71496;SDS011;59317;53.218;5.730;2023-05-16T06:53:23;7.05;;;0.90;;
71496;SDS011;59317;53.218;5.730;2023-05-16T06:55:49;7.57;;;0.88;;
71496;SDS011;59317;53.218;5.730;2023-05-16T06:58:15;6.78;;;1.00;;
71496;SDS011;59317;53.218;5.730;2023-05-16T07:00:41;7.93;;;0.80;;
71496;SDS011;59317;53.218;5.730;2023-05-16T07:03:08;8.93;;;1.00;;
71496;SDS011;59317;53.218;5.730;2023-05-16T07:05:34;8.60;;;1.20;;
71496;SDS011;59317;53.218;5.730;2023-05-16T07:08:00;8.43;;;0.90;;
71496;SDS011;59317;53.218;5.730;2023-05-16T07:10:26;7.43;;;1.00;;
71496;SDS011;59317;53.218;5.730;2023-05-16T07:12:52;8.13;;;0.97;;
71496;SDS011;59317;53.218;5.730;2023-05-16T07:15:19;7.38;;;1.00;;
71496;SDS011;59317;53.218;5.730;2023-05-16T07:17:45;7.32;;;0.98;;
71496;SDS011;59317;53.218;5.730;2023-05-16T07:20:11;7.03;;;0.73;;
71496;SDS011;59317;53.218;5.730;2023-05-16T07:22:39;6.47;;;0.77;;
71496;SDS011;59317;53.218;5.730;2023-05-16T07:25:05;9.25;;;1.25;;
71496;SDS011;59317;53.218;5.730;2023-05-16T07:27:36;10.80;;;1.00;;
71496;SDS011;59317;53.218;5.730;2023-05-16T07:30:02;8.35;;;0.90;;
71496;SDS011;59317;53.218;5.730;2023-05-16T07:32:28;9.95;;;1.05;;
71496;SDS011;59317;53.218;5.730;2023-05-16T07:34:54;6.97;;;0.70;;
71496;SDS011;59317;53.218;5.730;2023-05-16T07:37:20;6.82;;;0.70;;
71496;SDS011;59317;53.218;5.730;2023-05-16T07:39:46;8.30;;;0.90;;
71496;SDS011;59317;53.218;5.730;2023-05-16T07:42:13;8.48;;;0.90;;
71496;SDS011;59317;53.218;5.730;2023-05-16T07:44:39;10.98;;;1.30;;
71496;SDS011;59317;53.218;5.730;2023-05-16T07:47:05;8.48;;;0.88;;
71496;SDS011;59317;53.218;5.730;2023-05-16T07:49:31;7.68;;;0.73;;
71496;SDS011;59317;53.218;5.730;2023-05-16T07:51:57;8.77;;;0.75;;
71496;SDS011;59317;53.218;5.730;2023-05-16T07:54:23;9.50;;;1.02;;
71496;SDS011;59317;53.218;5.730;2023-05-16T07:56:49;9.50;;;0.88;;
71496;SDS011;59317;53.218;5.730;2023-05-16T07:59:15;7.15;;;0.95;;
71496;SDS011;59317;53.218;5.730;2023-05-16T08:01:41;7.07;;;0.70;;
71496;SDS011;59317;53.218;5.730;2023-05-16T08:04:07;8.00;;;0.82;;
71496;SDS011;59317;53.218;5.730;2023-05-16T08:06:33;10.05;;;1.20;;
71496;SDS011;59317;53.218;5.730;2023-05-16T08:08:59;8.07;;;1.00;;
71496;SDS011;59317;53.218;5.730;2023-05-16T08:11:25;6.97;;;0.80;;
71496;SDS011;59317;53.218;5.730;2023-05-16T08:13:51;9.10;;;0.98;;
71496;SDS011;59317;53.218;5.730;2023-05-16T08:16:17;7.35;;;1.00;;
71496;SDS011;59317;53.218;5.730;2023-05-16T08:18:43;7.25;;;0.82;;
71496;SDS011;59317;53.218;5.730;2023-05-16T08:21:09;8.35;;;0.90;;
71496;SDS011;59317;53.218;5.730;2023-05-16T08:23:35;10.13;;;1.10;;
71496;SDS011;59317;53.218;5.730;2023-05-16T08:26:02;7.83;;;1.00;;
71496;SDS011;59317;53.218;5.730;2023-05-16T08:28:28;6.33;;;0.87;;
71496;SDS011;59317;53.218;5.730;2023-05-16T08:30:54;9.32;;;1.13;;
71496;SDS011;59317;53.218;5.730;2023-05-16T08:33:20;9.43;;;1.00;;
71496;SDS011;59317;53.218;5.730;2023-05-16T08:35:46;8.40;;;0.90;;
71496;SDS011;59317;53.218;5.730;2023-05-16T08:38:19;10.93;;;1.38;;
71496;SDS011;59317;53.218;5.730;2023-05-16T08:40:45;9.07;;;1.05;;
71496;SDS011;59317;53.218;5.730;2023-05-16T08:43:11;8.43;;;1.10;;
71496;SDS011;59317;53.218;5.730;2023-05-16T08:45:40;7.85;;;0.82;;
71496;SDS011;59317;53.218;5.730;2023-05-16T08:48:06;8.80;;;1.10;;
71496;SDS011;59317;53.218;5.730;2023-05-16T08:50:34;8.95;;;0.98;;
71496;SDS011;59317;53.218;5.730;2023-05-16T08:53:03;8.82;;;0.93;;
71496;SDS011;59317;53.218;5.730;2023-05-16T08:55:31;7.15;;;0.77;;
71496;SDS011;59317;53.218;5.730;2023-05-16T08:57:57;8.40;;;0.70;;
71496;SDS011;59317;53.218;5.730;2023-05-16T09:00:24;9.50;;;0.87;;
71496;SDS011;59317;53.218;5.730;2023-05-16T09:02:51;9.10;;;1.00;;
71496;SDS011;59317;53.218;5.730;2023-05-16T09:05:17;7.28;;;0.90;;
71496;SDS011;59317;53.218;5.730;2023-05-16T09:07:44;7.93;;;0.88;;
71496;SDS011;59317;53.218;5.730;2023-05-16T09:10:11;10.43;;;1.30;;
71496;SDS011;59317;53.218;5.730;2023-05-16T09:12:38;7.07;;;0.90;;
71496;SDS011;59317;53.218;5.730;2023-05-16T09:15:05;7.68;;;0.75;;
71496;SDS011;59317;53.218;5.730;2023-05-16T09:17:39;6.35;;;0.82;;
71496;SDS011;59317;53.218;5.730;2023-05-16T09:22:35;6.32;;;0.85;;
71496;SDS011;59317;53.218;5.730;2023-05-16T09:25:01;7.72;;;0.90;;
71496;SDS011;59317;53.218;5.730;2023-05-16T09:27:29;8.50;;;0.90;;
71496;SDS011;59317;53.218;5.730;2023-05-16T09:29:56;7.77;;;0.77;;
71496;SDS011;59317;53.218;5.730;2023-05-16T09:32:22;8.40;;;0.90;;
71496;SDS011;59317;53.218;5.730;2023-05-16T09:34:48;6.28;;;0.90;;
71496;SDS011;59317;53.218;5.730;2023-05-16T09:37:15;6.13;;;0.90;;
71496;SDS011;59317;53.218;5.730;2023-05-16T09:39:48;8.07;;;0.95;;
71496;SDS011;59317;53.218;5.730;2023-05-16T09:42:15;8.50;;;0.93;;
71496;SDS011;59317;53.218;5.730;2023-05-16T09:44:48;7.05;;;0.90;;
71496;SDS011;59317;53.218;5.730;2023-05-16T09:47:15;8.70;;;0.98;;
71496;SDS011;59317;53.218;5.730;2023-05-16T09:49:42;7.47;;;0.80;;
71496;SDS011;59317;53.218;5.730;2023-05-16T09:52:09;8.70;;;0.80;;
71496;SDS011;59317;53.218;5.730;2023-05-16T09:54:35;7.28;;;1.00;;
71496;SDS011;59317;53.218;5.730;2023-05-16T09:57:01;7.93;;;0.93;;
71496;SDS011;59317;53.218;5.730;2023-05-16T09:59:27;7.93;;;1.00;;
71496;SDS011;59317;53.218;5.730;2023-05-16T10:01:54;8.77;;;0.85;;
71496;SDS011;59317;53.218;5.730;2023-05-16T10:04:22;9.05;;;0.90;;
71496;SDS011;59317;53.218;5.730;2023-05-16T10:06:48;8.18;;;1.13;;
71496;SDS011;59317;53.218;5.730;2023-05-16T10:09:15;8.75;;;1.00;;
71496;SDS011;59317;53.218;5.730;2023-05-16T10:11:42;8.02;;;1.00;;
71496;SDS011;59317;53.218;5.730;2023-05-16T10:14:10;9.25;;;1.00;;
71496;SDS011;59317;53.218;5.730;2023-05-16T10:16:36;7.70;;;1.10;;
71496;SDS011;59317;53.218;5.730;2023-05-16T10:19:03;9.10;;;1.00;;
71496;SDS011;59317;53.218;5.730;2023-05-16T10:21:30;9.50;;;1.00;;
71496;SDS011;59317;53.218;5.730;2023-05-16T10:23:57;9.13;;;1.30;;
71496;SDS011;59317;53.218;5.730;2023-05-16T10:26:24;6.07;;;1.17;;
71496;SDS011;59317;53.218;5.730;2023-05-16T10:28:50;5.43;;;1.13;;
71496;SDS011;59317;53.218;5.730;2023-05-16T10:31:17;7.75;;;1.00;;
71496;SDS011;59317;53.218;5.730;2023-05-16T10:33:44;11.00;;;1.30;;
71496;SDS011;59317;53.218;5.730;2023-05-16T10:36:10;7.87;;;1.17;;
71496;SDS011;59317;53.218;5.730;2023-05-16T10:38:37;8.63;;;1.00;;
71496;SDS011;59317;53.218;5.730;2023-05-16T10:41:04;8.40;;;0.80;;
71496;SDS011;59317;53.218;5.730;2023-05-16T10:43:30;7.25;;;0.82;;
71496;SDS011;59317;53.218;5.730;2023-05-16T10:48:33;9.03;;;1.23;;
71496;SDS011;59317;53.218;5.730;2023-05-16T10:51:00;6.55;;;0.90;;
71496;SDS011;59317;53.218;5.730;2023-05-16T10:53:34;6.68;;;1.05;;
71496;SDS011;59317;53.218;5.730;2023-05-16T11:06:26;8.13;;;1.25;;
71496;SDS011;59317;53.218;5.730;2023-05-16T11:09:05;5.57;;;1.10;;
71496;SDS011;59317;53.218;5.730;2023-05-16T11:11:41;6.45;;;1.35;;
71496;SDS011;59317;53.218;5.730;2023-05-16T11:14:07;7.32;;;1.50;;
71496;SDS011;59317;53.218;5.730;2023-05-16T11:16:34;6.60;;;1.27;;
71496;SDS011;59317;53.218;5.730;2023-05-16T11:19:06;7.07;;;1.40;;
71496;SDS011;59317;53.218;5.730;2023-05-16T11:24:27;5.55;;;1.38;;
71496;SDS011;59317;53.218;5.730;2023-05-16T11:26:53;7.18;;;1.20;;
71496;SDS011;59317;53.218;5.730;2023-05-16T11:29:20;6.30;;;1.33;;
71496;SDS011;59317;53.218;5.730;2023-05-16T11:31:46;6.18;;;1.15;;
71496;SDS011;59317;53.218;5.730;2023-05-16T11:34:12;7.22;;;1.27;;
71496;SDS011;59317;53.218;5.730;2023-05-16T11:36:38;6.53;;;1.20;;
71496;SDS011;59317;53.218;5.730;2023-05-16T11:39:07;9.90;;;1.50;;
71496;SDS011;59317;53.218;5.730;2023-05-16T11:41:34;7.18;;;1.40;;
71496;SDS011;59317;53.218;5.730;2023-05-16T11:44:00;7.70;;;1.10;;
71496;SDS011;59317;53.218;5.730;2023-05-16T11:46:26;7.47;;;1.40;;
71496;SDS011;59317;53.218;5.730;2023-05-16T11:48:52;7.50;;;1.50;;
71496;SDS011;59317;53.218;5.730;2023-05-16T11:51:18;7.77;;;1.50;;
71496;SDS011;59317;53.218;5.730;2023-05-16T11:53:48;5.57;;;1.30;;
71496;SDS011;59317;53.218;5.730;2023-05-16T11:56:14;6.97;;;1.40;;
71496;SDS011;59317;53.218;5.730;2023-05-16T11:58:40;9.18;;;1.70;;
71496;SDS011;59317;53.218;5.730;2023-05-16T12:01:06;6.88;;;1.60;;
71496;SDS011;59317;53.218;5.730;2023-05-16T12:03:34;8.13;;;1.80;;
71496;SDS011;59317;53.218;5.730;2023-05-16T12:06:00;8.13;;;2.00;;
71496;SDS011;59317;53.218;5.730;2023-05-16T12:08:27;8.53;;;1.90;;
71496;SDS011;59317;53.218;5.730;2023-05-16T12:10:53;8.05;;;1.55;;
71496;SDS011;59317;53.218;5.730;2023-05-16T12:13:20;6.50;;;1.38;;
71496;SDS011;59317;53.218;5.730;2023-05-16T12:15:46;7.18;;;1.52;;
71496;SDS011;59317;53.218;5.730;2023-05-16T12:18:12;8.13;;;1.48;;
71496;SDS011;59317;53.218;5.730;2023-05-16T12:20:39;9.18;;;1.35;;
71496;SDS011;59317;53.218;5.730;2023-05-16T12:23:09;14.85;;;1.50;;
71496;SDS011;59317;53.218;5.730;2023-05-16T12:25:35;10.18;;;1.10;;
71496;SDS011;59317;53.218;5.730;2023-05-16T12:28:06;7.45;;;1.17;;
71496;SDS011;59317;53.218;5.730;2023-05-16T12:30:32;5.80;;;0.70;;
71496;SDS011;59317;53.218;5.730;2023-05-16T12:35:24;11.98;;;1.60;;
71496;SDS011;59317;53.218;5.730;2023-05-16T12:37:51;7.38;;;1.70;;
71496;SDS011;59317;53.218;5.730;2023-05-16T12:40:17;8.02;;;1.67;;
71496;SDS011;59317;53.218;5.730;2023-05-16T12:42:44;8.93;;;2.10;;
71496;SDS011;59317;53.218;5.730;2023-05-16T12:45:14;8.07;;;1.85;;
71496;SDS011;59317;53.218;5.730;2023-05-16T12:47:41;8.60;;;1.70;;
71496;SDS011;59317;53.218;5.730;2023-05-16T12:50:10;7.97;;;2.50;;
71496;SDS011;59317;53.218;5.730;2023-05-16T12:52:49;10.17;;;2.53;;
71496;SDS011;59317;53.218;5.730;2023-05-16T12:55:16;9.32;;;2.42;;
71496;SDS011;59317;53.218;5.730;2023-05-16T12:57:42;7.82;;;1.75;;
71496;SDS011;59317;53.218;5.730;2023-05-16T13:00:09;6.90;;;1.70;;
71496;SDS011;59317;53.218;5.730;2023-05-16T13:02:36;9.32;;;2.33;;
71496;SDS011;59317;53.218;5.730;2023-05-16T13:05:02;7.70;;;2.03;;
71496;SDS011;59317;53.218;5.730;2023-05-16T13:07:28;8.50;;;2.30;;
71496;SDS011;59317;53.218;5.730;2023-05-16T13:09:54;7.78;;;2.22;;
71496;SDS011;59317;53.218;5.730;2023-05-16T13:12:21;8.25;;;2.00;;
71496;SDS011;59317;53.218;5.730;2023-05-16T13:14:50;7.28;;;2.20;;
71496;SDS011;59317;53.218;5.730;2023-05-16T13:17:16;7.38;;;2.40;;
71496;SDS011;59317;53.218;5.730;2023-05-16T13:19:42;8.80;;;2.10;;
71496;SDS011;59317;53.218;5.730;2023-05-16T13:22:08;8.73;;;1.90;;
71496;SDS011;59317;53.218;5.730;2023-05-16T13:24:34;8.48;;;1.80;;
71496;SDS011;59317;53.218;5.730;2023-05-16T13:27:00;8.63;;;1.80;;
71496;SDS011;59317;53.218;5.730;2023-05-16T13:29:27;8.10;;;1.90;;
71496;SDS011;59317;53.218;5.730;2023-05-16T13:31:53;7.32;;;1.60;;
71496;SDS011;59317;53.218;5.730;2023-05-16T13:34:19;10.10;;;2.03;;
71496;SDS011;59317;53.218;5.730;2023-05-16T13:36:45;7.10;;;1.80;;
71496;SDS011;59317;53.218;5.730;2023-05-16T13:39:12;6.00;;;1.65;;
71496;SDS011;59317;53.218;5.730;2023-05-16T13:41:38;7.88;;;1.63;;
71496;SDS011;59317;53.218;5.730;2023-05-16T13:44:06;8.55;;;1.67;;
71496;SDS011;59317;53.218;5.730;2023-05-16T13:46:32;7.72;;;1.70;;
71496;SDS011;59317;53.218;5.730;2023-05-16T13:48:58;7.10;;;1.65;;
71496;SDS011;59317;53.218;5.730;2023-05-16T13:51:24;7.63;;;1.65;;
71496;SDS011;59317;53.218;5.730;2023-05-16T13:53:50;6.45;;;1.35;;
71496;SDS011;59317;53.218;5.730;2023-05-16T13:56:16;6.15;;;1.20;;
71496;SDS011;59317;53.218;5.730;2023-05-16T13:58:42;6.60;;;1.38;;
71496;SDS011;59317;53.218;5.730;2023-05-16T14:01:08;6.55;;;1.27;;
71496;SDS011;59317;53.218;5.730;2023-05-16T14:03:35;6.20;;;1.00;;
71496;SDS011;59317;53.218;5.730;2023-05-16T14:06:01;5.28;;;1.13;;
71496;SDS011;59317;53.218;5.730;2023-05-16T14:08:28;5.57;;;1.00;;
71496;SDS011;59317;53.218;5.730;2023-05-16T14:10:54;6.22;;;1.20;;
71496;SDS011;59317;53.218;5.730;2023-05-16T14:13:20;8.82;;;1.42;;
71496;SDS011;59317;53.218;5.730;2023-05-16T14:15:46;7.70;;;1.33;;
71496;SDS011;59317;53.218;5.730;2023-05-16T14:18:12;7.35;;;1.30;;
71496;SDS011;59317;53.218;5.730;2023-05-16T14:20:38;5.28;;;1.20;;
71496;SDS011;59317;53.218;5.730;2023-05-16T14:23:04;5.65;;;1.10;;
71496;SDS011;59317;53.218;5.730;2023-05-16T14:25:30;7.00;;;1.30;;
71496;SDS011;59317;53.218;5.730;2023-05-16T14:27:56;6.32;;;1.10;;
71496;SDS011;59317;53.218;5.730;2023-05-16T14:30:22;7.97;;;1.42;;
71496;SDS011;59317;53.218;5.730;2023-05-16T14:32:48;6.00;;;1.23;;
71496;SDS011;59317;53.218;5.730;2023-05-16T14:35:14;6.80;;;1.30;;
71496;SDS011;59317;53.218;5.730;2023-05-16T14:37:40;6.75;;;1.38;;
71496;SDS011;59317;53.218;5.730;2023-05-16T14:40:06;6.32;;;1.38;;
71496;SDS011;59317;53.218;5.730;2023-05-16T14:42:33;6.28;;;1.30;;
71496;SDS011;59317;53.218;5.730;2023-05-16T14:44:59;6.38;;;1.27;;
71496;SDS011;59317;53.218;5.730;2023-05-16T14:47:25;7.75;;;1.50;;
71496;SDS011;59317;53.218;5.730;2023-05-16T14:49:53;5.88;;;1.05;;
71496;SDS011;59317;53.218;5.730;2023-05-16T14:52:20;7.05;;;1.30;;
71496;SDS011;59317;53.218;5.730;2023-05-16T14:54:46;8.40;;;1.23;;
71496;SDS011;59317;53.218;5.730;2023-05-16T14:57:12;7.07;;;1.17;;
71496;SDS011;59317;53.218;5.730;2023-05-16T14:59:38;7.82;;;1.20;;
71496;SDS011;59317;53.218;5.730;2023-05-16T15:02:04;8.77;;;1.03;;
71496;SDS011;59317;53.218;5.730;2023-05-16T15:04:30;8.77;;;0.88;;
71496;SDS011;59317;53.218;5.730;2023-05-16T15:06:57;5.00;;;0.57;;
71496;SDS011;59317;53.218;5.730;2023-05-16T15:09:23;4.97;;;0.63;;